Aviation Digital Data Service (ADDS)

Output produced by METARs form (1031 UTC 19 February 2019)
found at http://www.aviationweather.gov/metar/data/
 
METAR text: RJAH 191000Z VRB01KT 2000 -RA BR FEW012 SCT020 OVC035 07/07 Q1016
Conditions at: RJAH (HYAKURI (JASDF) , JP) observed 1000 UTC 19 February 2019
Temperature: 7.0°C (45°F)
Dewpoint: 7.0°C (45°F) [RH = 100%]
Pressure (altimeter): 30.00 inches Hg (1016.0 mb)
Winds: variable direction winds at 1 MPH (1 knots; 0.5 m/s)
Visibility: 1.24 miles (2.00 km)
Ceiling: 3500 feet AGL
Clouds: few clouds at 1200 feet AGL
scattered clouds at 2000 feet AGL
overcast cloud deck at 3500 feet AGL
Weather: -RA BR  (light rain, mist)

METAR text: RJAH 190909Z 02001KT 2500 -RA BR FEW012 SCT020 OVC045 08/07 Q1017 RMK 1SC012 3SC020 8SC045 A3004 VIS S-SW 1800M
Conditions at: RJAH (HYAKURI (JASDF) , JP) observed 0909 UTC 19 February 2019
Temperature: 8.0°C (46°F)
Dewpoint: 7.0°C (45°F) [RH = 93%]
Pressure (altimeter): 30.03 inches Hg (1017.0 mb)
Winds: from the NNE (20 degrees) at 1 MPH (1 knots; 0.5 m/s)
Visibility: 1.55 miles (2.49 km)
Ceiling: 4500 feet AGL
Clouds: few clouds at 1200 feet AGL
scattered clouds at 2000 feet AGL
overcast cloud deck at 4500 feet AGL
Weather: -RA BR  (light rain, mist)

METAR text: RJAH 190900Z 01001KT 3000 -RA BR FEW015 SCT025 OVC050 08/07 Q1017
Conditions at: RJAH (HYAKURI (JASDF) , JP) observed 0900 UTC 19 February 2019
Temperature: 8.0°C (46°F)
Dewpoint: 7.0°C (45°F) [RH = 93%]
Pressure (altimeter): 30.03 inches Hg (1017.0 mb)
Winds: from the N (10 degrees) at 1 MPH (1 knots; 0.5 m/s)
Visibility: 1.86 miles (2.99 km)
Ceiling: 5000 feet AGL
Clouds: few clouds at 1500 feet AGL
scattered clouds at 2500 feet AGL
overcast cloud deck at 5000 feet AGL
Weather: -RA BR  (light rain, mist)

METAR text: RJAH 190844Z VRB01KT 3000 -RA BR FEW020 SCT030 OVC060 08/06 Q1017 RMK 1SC020 3SC030 8SC060 A3004 VIS S-W 2500M
Conditions at: RJAH (HYAKURI (JASDF) , JP) observed 0844 UTC 19 February 2019
Temperature: 8.0°C (46°F)
Dewpoint: 6.0°C (43°F) [RH = 87%]
Pressure (altimeter): 30.03 inches Hg (1017.0 mb)
Winds: variable direction winds at 1 MPH (1 knots; 0.5 m/s)
Visibility: 1.86 miles (2.99 km)
Ceiling: 6000 feet AGL
Clouds: few clouds at 2000 feet AGL
scattered clouds at 3000 feet AGL
overcast cloud deck at 6000 feet AGL
Weather: -RA BR  (light rain, mist)

METAR text: RJAH 190827Z VRB02KT 4000 -RA BR FEW030 SCT040 OVC070 08/07 Q1018 RMK 1SC030 3SC040 8AS070 A3006 VIS S-SW 3000M FCST AMD 0814 TEMPO 0811 3000 -RA BR FEW004ST BKN006ST TEMPO 1114 2000 -SHRA BR FEW003ST BKN005ST BKN008ST
Conditions at: RJAH (HYAKURI (JASDF) , JP) observed 0827 UTC 19 February 2019
Temperature: 8.0°C (46°F)
Dewpoint: 7.0°C (45°F) [RH = 93%]
Pressure (altimeter): 30.06 inches Hg (1018.0 mb)
Winds: variable direction winds at 2 MPH (2 knots; 1.0 m/s)
Visibility: 2.49 miles (4.01 km)
Ceiling: 7000 feet AGL
Clouds: few clouds at 3000 feet AGL
scattered clouds at 4000 feet AGL
overcast cloud deck at 7000 feet AGL
Weather: -RA BR  (light rain, mist)

METAR text: RJAH 190800Z VRB01KT 5000 -RA BR FEW030 SCT040 OVC070 08/07 Q1018
Conditions at: RJAH (HYAKURI (JASDF) , JP) observed 0800 UTC 19 February 2019
Temperature: 8.0°C (46°F)
Dewpoint: 7.0°C (45°F) [RH = 93%]
Pressure (altimeter): 30.06 inches Hg (1018.0 mb)
Winds: variable direction winds at 1 MPH (1 knots; 0.5 m/s)
Visibility: 3 miles ( 5 km)
Ceiling: 7000 feet AGL
Clouds: few clouds at 3000 feet AGL
scattered clouds at 4000 feet AGL
overcast cloud deck at 7000 feet AGL
Weather: -RA BR  (light rain, mist)

METAR text: RJAH 190700Z 00000KT 6000 -RA FEW030 SCT040 OVC080 08/06 Q1018
Conditions at: RJAH (HYAKURI (JASDF) , JP) observed 0700 UTC 19 February 2019
Temperature: 8.0°C (46°F)
Dewpoint: 6.0°C (43°F) [RH = 87%]
Pressure (altimeter): 30.06 inches Hg (1018.0 mb)
Winds: calm
Visibility: 4 miles ( 6 km)
Ceiling: 8000 feet AGL
Clouds: few clouds at 3000 feet AGL
scattered clouds at 4000 feet AGL
overcast cloud deck at 8000 feet AGL
Weather: -RA  (light rain)

METAR text: RJAH 190600Z 21003KT 7000 -RA FEW030 SCT040 OVC080 09/06 Q1019
Conditions at: RJAH (HYAKURI (JASDF) , JP) observed 0600 UTC 19 February 2019
Temperature: 9.0°C (48°F)
Dewpoint: 6.0°C (43°F) [RH = 81%]
Pressure (altimeter): 30.09 inches Hg (1019.0 mb)
Winds: from the SSW (210 degrees) at 3 MPH (3 knots; 1.5 m/s)
Visibility: 4 miles ( 7 km)
Ceiling: 8000 feet AGL
Clouds: few clouds at 3000 feet AGL
scattered clouds at 4000 feet AGL
overcast cloud deck at 8000 feet AGL
Weather: -RA  (light rain)

METAR text: RJAH 190500Z 23005KT 9999 -RA FEW030 BKN040 OVC080 09/04 Q1020
Conditions at: RJAH (HYAKURI (JASDF) , JP) observed 0500 UTC 19 February 2019
Temperature: 9.0°C (48°F)
Dewpoint: 4.0°C (39°F) [RH = 71%]
Pressure (altimeter): 30.12 inches Hg (1020.0 mb)
Winds: from the SW (230 degrees) at 6 MPH (5 knots; 2.6 m/s)
Visibility: 6 or more miles (10+ km)
Ceiling: 4000 feet AGL
Clouds: few clouds at 3000 feet AGL
broken clouds at 4000 feet AGL
overcast cloud deck at 8000 feet AGL
Weather: -RA  (light rain)

METAR text: RJAH 190400Z 21008KT 9999 -RA FEW030 SCT040 OVC080 11/03 Q1021
Conditions at: RJAH (HYAKURI (JASDF) , JP) observed 0400 UTC 19 February 2019
Temperature: 11.0°C (52°F)
Dewpoint: 3.0°C (37°F) [RH = 58%]
Pressure (altimeter): 30.15 inches Hg (1021.0 mb)
Winds: from the SSW (210 degrees) at 9 MPH (8 knots; 4.1 m/s)
Visibility: 6 or more miles (10+ km)
Ceiling: 8000 feet AGL
Clouds: few clouds at 3000 feet AGL
scattered clouds at 4000 feet AGL
overcast cloud deck at 8000 feet AGL
Weather: -RA  (light rain)

METAR text: RJAH 190300Z 22006KT 190V260 9999 -RA FEW025 BKN030 OVC080 11/02 Q1023
Conditions at: RJAH (HYAKURI (JASDF) , JP) observed 0300 UTC 19 February 2019
Temperature: 11.0°C (52°F)
Dewpoint: 2.0°C (36°F) [RH = 54%]
Pressure (altimeter): 30.21 inches Hg (1023.0 mb)
Winds: from the SW (220 degrees) at 7 MPH (6 knots; 3.1 m/s)
Visibility: 6 or more miles (10+ km)
Ceiling: 3000 feet AGL
Clouds: few clouds at 2500 feet AGL
broken clouds at 3000 feet AGL
overcast cloud deck at 8000 feet AGL
Weather: -RA  (light rain)

METAR text: RJAH 190226Z 23006KT 200V340 9999 -RA FEW025 SCT030 OVC080 11/03 Q1023 RMK 1SC025 3SC030 8AS080 A3022
Conditions at: RJAH (HYAKURI (JASDF) , JP) observed 0226 UTC 19 February 2019
Temperature: 11.0°C (52°F)
Dewpoint: 3.0°C (37°F) [RH = 58%]
Pressure (altimeter): 30.21 inches Hg (1023.0 mb)
Winds: from the SW (230 degrees) at 7 MPH (6 knots; 3.1 m/s)
Visibility: 6 or more miles (10+ km)
Ceiling: 8000 feet AGL
Clouds: few clouds at 2500 feet AGL
scattered clouds at 3000 feet AGL
overcast cloud deck at 8000 feet AGL
Weather: -RA  (light rain)

METAR text: RJAH 190200Z 22005KT 9999 FEW035 BKN100 11/03 Q1024
Conditions at: RJAH (HYAKURI (JASDF) , JP) observed 0200 UTC 19 February 2019
Temperature: 11.0°C (52°F)
Dewpoint: 3.0°C (37°F) [RH = 58%]
Pressure (altimeter): 30.24 inches Hg (1024.0 mb)
Winds: from the SW (220 degrees) at 6 MPH (5 knots; 2.6 m/s)
Visibility: 6 or more miles (10+ km)
Ceiling: 10000 feet AGL
Clouds: few clouds at 3500 feet AGL
broken clouds at 10000 feet AGL
Weather: no significant weather observed at this time

METAR text: RJAH 190100Z 00000KT 9999 FEW035 BKN130 09/01 Q1024
Conditions at: RJAH (HYAKURI (JASDF) , JP) observed 0100 UTC 19 February 2019
Temperature: 9.0°C (48°F)
Dewpoint: 1.0°C (34°F) [RH = 57%]
Pressure (altimeter): 30.24 inches Hg (1024.0 mb)
Winds: calm
Visibility: 6 or more miles (10+ km)
Ceiling: 13000 feet AGL
Clouds: few clouds at 3500 feet AGL
broken clouds at 13000 feet AGL
Weather: no significant weather observed at this time

METAR text: RJAH 190000Z 22003KT 190V250 9999 FEW035 BKN130 08/01 Q1025
Conditions at: RJAH (HYAKURI (JASDF) , JP) observed 0000 UTC 19 February 2019
Temperature: 8.0°C (46°F)
Dewpoint: 1.0°C (34°F) [RH = 61%]
Pressure (altimeter): 30.27 inches Hg (1025.0 mb)
Winds: from the SW (220 degrees) at 3 MPH (3 knots; 1.5 m/s)
Visibility: 6 or more miles (10+ km)
Ceiling: 13000 feet AGL
Clouds: few clouds at 3500 feet AGL
broken clouds at 13000 feet AGL
Weather: no significant weather observed at this time

METAR text: RJAH 182300Z 34004KT 9999 FEW025 BKN035 BKN130 06/00 Q1026
Conditions at: RJAH (HYAKURI (JASDF) , JP) observed 2300 UTC 18 February 2019
Temperature: 6.0°C (43°F)
Dewpoint: 0.0°C (32°F) [RH = 65%]
Pressure (altimeter): 30.30 inches Hg (1026.0 mb)
Winds: from the NNW (340 degrees) at 5 MPH (4 knots; 2.1 m/s)
Visibility: 6 or more miles (10+ km)
Ceiling: 3500 feet AGL
Clouds: few clouds at 2500 feet AGL
broken clouds at 3500 feet AGL
broken clouds at 13000 feet AGL
Weather: no significant weather observed at this time

METAR text: RJAH 182200Z 01003KT 9999 FEW030 BKN040 BKN130 05/M00 Q1025
Conditions at: RJAH (HYAKURI (JASDF) , JP) observed 2200 UTC 18 February 2019
Temperature: 5.0°C (41°F)
Dewpoint: 0.0°C (32°F) [RH = 70%]
Pressure (altimeter): 30.27 inches Hg (1025.0 mb)
Winds: from the N (10 degrees) at 3 MPH (3 knots; 1.5 m/s)
Visibility: 6 or more miles (10+ km)
Ceiling: 4000 feet AGL
Clouds: few clouds at 3000 feet AGL
broken clouds at 4000 feet AGL
broken clouds at 13000 feet AGL
Weather: no significant weather observed at this time

METAR text: RJAH 182100Z 02003KT 9999 FEW040 BKN130 04/M01 Q1025
Conditions at: RJAH (HYAKURI (JASDF) , JP) observed 2100 UTC 18 February 2019
Temperature: 4.0°C (39°F)
Dewpoint: -1.0°C (30°F) [RH = 70%]
Pressure (altimeter): 30.27 inches Hg (1025.0 mb)
Winds: from the NNE (20 degrees) at 3 MPH (3 knots; 1.5 m/s)
Visibility: 6 or more miles (10+ km)
Ceiling: 13000 feet AGL
Clouds: few clouds at 4000 feet AGL
broken clouds at 13000 feet AGL
Weather: no significant weather observed at this time

METAR text: RJAH 182000Z 01004KT 9999 FEW030 SCT040 BKN140 03/M02 Q1025
Conditions at: RJAH (HYAKURI (JASDF) , JP) observed 2000 UTC 18 February 2019
Temperature: 3.0°C (37°F)
Dewpoint: -2.0°C (28°F) [RH = 70%]
Pressure (altimeter): 30.27 inches Hg (1025.0 mb)
Winds: from the N (10 degrees) at 5 MPH (4 knots; 2.1 m/s)
Visibility: 6 or more miles (10+ km)
Ceiling: 14000 feet AGL
Clouds: few clouds at 3000 feet AGL
scattered clouds at 4000 feet AGL
broken clouds at 14000 feet AGL
Weather: no significant weather observed at this time

METAR text: RJAH 181900Z VRB02KT 9999 FEW030 BKN040 04/M01 Q1025
Conditions at: RJAH (HYAKURI (JASDF) , JP) observed 1900 UTC 18 February 2019
Temperature: 4.0°C (39°F)
Dewpoint: -1.0°C (30°F) [RH = 70%]
Pressure (altimeter): 30.27 inches Hg (1025.0 mb)
Winds: variable direction winds at 2 MPH (2 knots; 1.0 m/s)
Visibility: 6 or more miles (10+ km)
Ceiling: 4000 feet AGL
Clouds: few clouds at 3000 feet AGL
broken clouds at 4000 feet AGL
Weather: no significant weather observed at this time

METAR text: RJAH 181800Z 02003KT 9999 FEW030 BKN040 05/M02 Q1025
Conditions at: RJAH (HYAKURI (JASDF) , JP) observed 1800 UTC 18 February 2019
Temperature: 5.0°C (41°F)
Dewpoint: -2.0°C (28°F) [RH = 60%]
Pressure (altimeter): 30.27 inches Hg (1025.0 mb)
Winds: from the NNE (20 degrees) at 3 MPH (3 knots; 1.5 m/s)
Visibility: 6 or more miles (10+ km)
Ceiling: 4000 feet AGL
Clouds: few clouds at 3000 feet AGL
broken clouds at 4000 feet AGL
Weather: no significant weather observed at this time

METAR text: RJAH 181700Z 36004KT 9999 FEW030 BKN040 04/M01 Q1026
Conditions at: RJAH (HYAKURI (JASDF) , JP) observed 1700 UTC 18 February 2019
Temperature: 4.0°C (39°F)
Dewpoint: -1.0°C (30°F) [RH = 70%]
Pressure (altimeter): 30.30 inches Hg (1026.0 mb)
Winds: from the N (360 degrees) at 5 MPH (4 knots; 2.1 m/s)
Visibility: 6 or more miles (10+ km)
Ceiling: 4000 feet AGL
Clouds: few clouds at 3000 feet AGL
broken clouds at 4000 feet AGL
Weather: no significant weather observed at this time

METAR text: RJAH 181600Z 02003KT 9999 FEW030 BKN040 03/M02 Q1026
Conditions at: RJAH (HYAKURI (JASDF) , JP) observed 1600 UTC 18 February 2019
Temperature: 3.0°C (37°F)
Dewpoint: -2.0°C (28°F) [RH = 70%]
Pressure (altimeter): 30.30 inches Hg (1026.0 mb)
Winds: from the NNE (20 degrees) at 3 MPH (3 knots; 1.5 m/s)
Visibility: 6 or more miles (10+ km)
Ceiling: 4000 feet AGL
Clouds: few clouds at 3000 feet AGL
broken clouds at 4000 feet AGL
Weather: no significant weather observed at this time

METAR text: RJAH 181551Z 02003KT 9999 FEW030 BKN040 BKN/// 03/M02 Q1026 RMK 1SC030 5SC040 A3030
Conditions at: RJAH (HYAKURI (JASDF) , JP) observed 1551 UTC 18 February 2019
Temperature: 3.0°C (37°F)
Dewpoint: -2.0°C (28°F) [RH = 70%]
Pressure (altimeter): 30.30 inches Hg (1026.0 mb)
Winds: from the NNE (20 degrees) at 3 MPH (3 knots; 1.5 m/s)
Visibility: 6 or more miles (10+ km)
Ceiling: 4000 feet AGL
Clouds: few clouds at 3000 feet AGL
broken clouds at 4000 feet AGL
Weather: no significant weather observed at this time

METAR text: RJAH 181500Z 35003KT 9999 FEW030 SCT/// 02/M02 Q1026
Conditions at: RJAH (HYAKURI (JASDF) , JP) observed 1500 UTC 18 February 2019
Temperature: 2.0°C (36°F)
Dewpoint: -2.0°C (28°F) [RH = 75%]
Pressure (altimeter): 30.30 inches Hg (1026.0 mb)
Winds: from the N (350 degrees) at 3 MPH (3 knots; 1.5 m/s)
Visibility: 6 or more miles (10+ km)
Ceiling: at least 12,000 feet AGL
Clouds: few clouds at 3000 feet AGL
Weather: no significant weather observed at this time

METAR text: RJAH 181400Z 02003KT 9999 BKN/// 03/M02 Q1026
Conditions at: RJAH (HYAKURI (JASDF) , JP) observed 1400 UTC 18 February 2019
Temperature: 3.0°C (37°F)
Dewpoint: -2.0°C (28°F) [RH = 70%]
Pressure (altimeter): 30.30 inches Hg (1026.0 mb)
Winds: from the NNE (20 degrees) at 3 MPH (3 knots; 1.5 m/s)
Visibility: 6 or more miles (10+ km)
Ceiling: unknown
Clouds: missing
Weather: no significant weather observed at this time

METAR text: RJAH 181300Z VRB03KT 9999 BKN/// 02/M03 Q1026
Conditions at: RJAH (HYAKURI (JASDF) , JP) observed 1300 UTC 18 February 2019
Temperature: 2.0°C (36°F)
Dewpoint: -3.0°C (27°F) [RH = 69%]
Pressure (altimeter): 30.30 inches Hg (1026.0 mb)
Winds: variable direction winds at 3 MPH (3 knots; 1.5 m/s)
Visibility: 6 or more miles (10+ km)
Ceiling: unknown
Clouds: missing
Weather: no significant weather observed at this time

METAR text: RJAH 181200Z 11001KT 9999 SCT/// 05/M02 Q1025
Conditions at: RJAH (HYAKURI (JASDF) , JP) observed 1200 UTC 18 February 2019
Temperature: 5.0°C (41°F)
Dewpoint: -2.0°C (28°F) [RH = 60%]
Pressure (altimeter): 30.27 inches Hg (1025.0 mb)
Winds: from the ESE (110 degrees) at 1 MPH (1 knots; 0.5 m/s)
Visibility: 6 or more miles (10+ km)
Ceiling: unknown
Clouds: missing
Weather: no significant weather observed at this time

METAR text: RJAH 181100Z 17003KT 9999 FEW/// 08/M02 Q1025
Conditions at: RJAH (HYAKURI (JASDF) , JP) observed 1100 UTC 18 February 2019
Temperature: 8.0°C (46°F)
Dewpoint: -2.0°C (28°F) [RH = 49%]
Pressure (altimeter): 30.27 inches Hg (1025.0 mb)
Winds: from the S (170 degrees) at 3 MPH (3 knots; 1.5 m/s)
Visibility: 6 or more miles (10+ km)
Ceiling: unknown
Clouds: missing
Weather: no significant weather observed at this time

METAR text: RJAH 181000Z 14004KT 9999 FEW250 08/M06 Q1025
Conditions at: RJAH (HYAKURI (JASDF) , JP) observed 1000 UTC 18 February 2019
Temperature: 8.0°C (46°F)
Dewpoint: -6.0°C (21°F) [RH = 36%]
Pressure (altimeter): 30.27 inches Hg (1025.0 mb)
Winds: from the SE (140 degrees) at 5 MPH (4 knots; 2.1 m/s)
Visibility: 6 or more miles (10+ km)
Ceiling: at least 12,000 feet AGL
Clouds: few clouds at 25000 feet AGL
Weather: no significant weather observed at this time

METAR text: RJAH 180900Z 13005KT 9999 FEW250 10/M07 Q1024
Conditions at: RJAH (HYAKURI (JASDF) , JP) observed 0900 UTC 18 February 2019
Temperature: 10.0°C (50°F)
Dewpoint: -7.0°C (19°F) [RH = 29%]
Pressure (altimeter): 30.24 inches Hg (1024.0 mb)
Winds: from the SE (130 degrees) at 6 MPH (5 knots; 2.6 m/s)
Visibility: 6 or more miles (10+ km)
Ceiling: at least 12,000 feet AGL
Clouds: few clouds at 25000 feet AGL
Weather: no significant weather observed at this time

METAR text: RJAH 180800Z 13003KT 9999 FEW250 12/M09 Q1023
Conditions at: RJAH (HYAKURI (JASDF) , JP) observed 0800 UTC 18 February 2019
Temperature: 12.0°C (54°F)
Dewpoint: -9.0°C (16°F) [RH = 22%]
Pressure (altimeter): 30.21 inches Hg (1023.0 mb)
Winds: from the SE (130 degrees) at 3 MPH (3 knots; 1.5 m/s)
Visibility: 6 or more miles (10+ km)
Ceiling: at least 12,000 feet AGL
Clouds: few clouds at 25000 feet AGL
Weather: no significant weather observed at this time

METAR text: RJAH 180700Z 20002KT 9999 NSC 12/M09 Q1022
Conditions at: RJAH (HYAKURI (JASDF) , JP) observed 0700 UTC 18 February 2019
Temperature: 12.0°C (54°F)
Dewpoint: -9.0°C (16°F) [RH = 22%]
Pressure (altimeter): 30.18 inches Hg (1022.0 mb)
Winds: from the SSW (200 degrees) at 2 MPH (2 knots; 1.0 m/s)
Visibility: 6 or more miles (10+ km)
Ceiling: at least 12,000 feet AGL
Clouds: sky clear below 12,000 feet AGL
Weather: no significant weather observed at this time

METAR text: RJAH 180600Z 20006KT 9999 NSC 13/M10 Q1022
Conditions at: RJAH (HYAKURI (JASDF) , JP) observed 0600 UTC 18 February 2019
Temperature: 13.0°C (55°F)
Dewpoint: -10.0°C (14°F) [RH = 19%]
Pressure (altimeter): 30.18 inches Hg (1022.0 mb)
Winds: from the SSW (200 degrees) at 7 MPH (6 knots; 3.1 m/s)
Visibility: 6 or more miles (10+ km)
Ceiling: at least 12,000 feet AGL
Clouds: sky clear below 12,000 feet AGL
Weather: no significant weather observed at this time

METAR text: RJAH 180500Z 30002KT 9999 FEW030 12/M10 Q1022
Conditions at: RJAH (HYAKURI (JASDF) , JP) observed 0500 UTC 18 February 2019
Temperature: 12.0°C (54°F)
Dewpoint: -10.0°C (14°F) [RH = 20%]
Pressure (altimeter): 30.18 inches Hg (1022.0 mb)
Winds: from the WNW (300 degrees) at 2 MPH (2 knots; 1.0 m/s)
Visibility: 6 or more miles (10+ km)
Ceiling: at least 12,000 feet AGL
Clouds: few clouds at 3000 feet AGL
Weather: no significant weather observed at this time

METAR text: RJAH 180400Z 30003KT 9999 FEW030 12/M10 Q1022
Conditions at: RJAH (HYAKURI (JASDF) , JP) observed 0400 UTC 18 February 2019
Temperature: 12.0°C (54°F)
Dewpoint: -10.0°C (14°F) [RH = 20%]
Pressure (altimeter): 30.18 inches Hg (1022.0 mb)
Winds: from the WNW (300 degrees) at 3 MPH (3 knots; 1.5 m/s)
Visibility: 6 or more miles (10+ km)
Ceiling: at least 12,000 feet AGL
Clouds: few clouds at 3000 feet AGL
Weather: no significant weather observed at this time

METAR text: RJAH 180300Z 30006KT 250V350 9999 FEW030 11/M09 Q1023
Conditions at: RJAH (HYAKURI (JASDF) , JP) observed 0300 UTC 18 February 2019
Temperature: 11.0°C (52°F)
Dewpoint: -9.0°C (16°F) [RH = 24%]
Pressure (altimeter): 30.21 inches Hg (1023.0 mb)
Winds: from the WNW (300 degrees) at 7 MPH (6 knots; 3.1 m/s)
Visibility: 6 or more miles (10+ km)
Ceiling: at least 12,000 feet AGL
Clouds: few clouds at 3000 feet AGL
Weather: no significant weather observed at this time

METAR text: RJAH 180200Z 23005KT 140V290 9999 FEW040 08/M07 Q1023
Conditions at: RJAH (HYAKURI (JASDF) , JP) observed 0200 UTC 18 February 2019
Temperature: 8.0°C (46°F)
Dewpoint: -7.0°C (19°F) [RH = 34%]
Pressure (altimeter): 30.21 inches Hg (1023.0 mb)
Winds: from the SW (230 degrees) at 6 MPH (5 knots; 2.6 m/s)
Visibility: 6 or more miles (10+ km)
Ceiling: at least 12,000 feet AGL
Clouds: few clouds at 4000 feet AGL
Weather: no significant weather observed at this time

METAR text: RJAH 180100Z 22005KT 160V260 9999 FEW040 07/M07 Q1023
Conditions at: RJAH (HYAKURI (JASDF) , JP) observed 0100 UTC 18 February 2019
Temperature: 7.0°C (45°F)
Dewpoint: -7.0°C (19°F) [RH = 36%]
Pressure (altimeter): 30.21 inches Hg (1023.0 mb)
Winds: from the SW (220 degrees) at 6 MPH (5 knots; 2.6 m/s)
Visibility: 6 or more miles (10+ km)
Ceiling: at least 12,000 feet AGL
Clouds: few clouds at 4000 feet AGL
Weather: no significant weather observed at this time

METAR text: RJAH 180000Z VRB01KT 9999 FEW040 03/M06 Q1023
Conditions at: RJAH (HYAKURI (JASDF) , JP) observed 0000 UTC 18 February 2019
Temperature: 3.0°C (37°F)
Dewpoint: -6.0°C (21°F) [RH = 52%]
Pressure (altimeter): 30.21 inches Hg (1023.0 mb)
Winds: variable direction winds at 1 MPH (1 knots; 0.5 m/s)
Visibility: 6 or more miles (10+ km)
Ceiling: at least 12,000 feet AGL
Clouds: few clouds at 4000 feet AGL
Weather: no significant weather observed at this time

METAR text: RJAH 172300Z VRB01KT 9999 FEW030 M02/M06 Q1022
Conditions at: RJAH (HYAKURI (JASDF) , JP) observed 2300 UTC 17 February 2019
Temperature: -2.0°C (28°F)
Dewpoint: -6.0°C (21°F) [RH = 74%]
Pressure (altimeter): 30.18 inches Hg (1022.0 mb)
Winds: variable direction winds at 1 MPH (1 knots; 0.5 m/s)
Visibility: 6 or more miles (10+ km)
Ceiling: at least 12,000 feet AGL
Clouds: few clouds at 3000 feet AGL
Weather: no significant weather observed at this time

Forecast for: RJAH (HYAKURI (JASDF) , JP)
Text: TAF RJAH 190507Z 1906/2012 12004KT 8000 -RA FEW008 BKN015
Forecast period: 0600 UTC 19 February 2019 to 1200 UTC 20 February 2019
Forecast type: FROM: standard forecast or significant change
Winds: from the ESE (120 degrees) at 5 MPH (4 knots; 2.1 m/s)
Visibility: 5 miles (8 km)
Ceiling: 1500 feet AGL
Clouds: few clouds at 800 feet AGL
broken clouds at 1500 feet AGL
Weather: -RA  (light rain)
Text: BECMG 1906/1908 3000 -RA BR FEW005 BKN008
Forecast period: 0600 to 1200 UTC 19 February 2019
Forecast type: BECOMING: Conditions expected to become as follows by 0800 UTC 19 February 2019
Winds: from the ESE (120 degrees) at 5 MPH (4 knots; 2.1 m/s)
Visibility: 1.86 miles (2.99 km)
Ceiling: 800 feet AGL
Clouds: few clouds at 500 feet AGL
broken clouds at 800 feet AGL
Weather: -RA BR  (light rain, mist)
Text: TEMPO 1908/1916 FEW003 BKN005
Forecast period: 0800 to 1600 UTC 19 February 2019
Forecast type: TEMPORARY: The following changes expected for less than half the time period
Visibility: missing
Ceiling: 500 feet AGL
Clouds: few clouds at 300 feet AGL
broken clouds at 500 feet AGL
Weather: no significant weather forecast for this period
Text: BECMG 1912/1914 36005KT
Forecast period: 1200 UTC 19 February 2019 to 0000 UTC 20 February 2019
Forecast type: BECOMING: Conditions expected to become as follows by 1400 UTC 19 February 2019
Winds: from the N (360 degrees) at 6 MPH (5 knots; 2.6 m/s)
Visibility: 1.86 miles (2.99 km)
Ceiling: 800 feet AGL
Clouds: few clouds at 500 feet AGL
broken clouds at 800 feet AGL
Weather: -RA BR  (light rain, mist)
Text: TEMPO 1916/2000 0700 FG VV004
Forecast period: 1600 UTC 19 February 2019 to 0000 UTC 20 February 2019
Forecast type: TEMPORARY: The following changes expected for less than half the time period
Visibility: 0.43 miles (0.69 km)
Ceiling: indefinite ceiling with vertical visibility of 400 feet AGL
Clouds: obscured sky
Weather: FG  (fog)
Text: BECMG 2000/2003 8000 NSW FEW015 BKN030
Forecast period: 0000 to 1200 UTC 20 February 2019
Forecast type: BECOMING: Conditions expected to become as follows by 0300 UTC 20 February 2019
Winds: from the N (360 degrees) at 6 MPH (5 knots; 2.6 m/s)
Visibility: 5 miles (8 km)
Ceiling: 3000 feet AGL
Clouds: few clouds at 1500 feet AGL
broken clouds at 3000 feet AGL
Weather: NSW  (no significant weather)